sensor_id;sensor_type;location;lat;lon;timestamp;P1;durP1;ratioP1;P2;durP2;ratioP2
3155;SDS011;1588;50.892;7.082;2023-08-17T00:02:00;19.50;;;10.60;;
3155;SDS011;1588;50.892;7.082;2023-08-17T00:07:04;19.97;;;11.10;;
3155;SDS011;1588;50.892;7.082;2023-08-17T00:12:07;26.40;;;11.43;;
3155;SDS011;1588;50.892;7.082;2023-08-17T00:17:14;18.13;;;11.20;;
3155;SDS011;1588;50.892;7.082;2023-08-17T00:22:16;19.77;;;11.10;;
3155;SDS011;1588;50.892;7.082;2023-08-17T00:27:19;19.03;;;10.30;;
3155;SDS011;1588;50.892;7.082;2023-08-17T00:32:22;19.30;;;10.80;;
3155;SDS011;1588;50.892;7.082;2023-08-17T00:37:24;20.43;;;11.90;;
3155;SDS011;1588;50.892;7.082;2023-08-17T00:42:27;27.00;;;10.57;;
3155;SDS011;1588;50.892;7.082;2023-08-17T00:47:30;25.00;;;11.90;;
3155;SDS011;1588;50.892;7.082;2023-08-17T00:52:33;20.23;;;10.40;;
3155;SDS011;1588;50.892;7.082;2023-08-17T00:57:35;17.83;;;10.90;;
3155;SDS011;1588;50.892;7.082;2023-08-17T01:02:40;19.00;;;11.27;;
3155;SDS011;1588;50.892;7.082;2023-08-17T01:07:46;16.00;;;9.20;;
3155;SDS011;1588;50.892;7.082;2023-08-17T01:12:50;25.80;;;10.30;;
3155;SDS011;1588;50.892;7.082;2023-08-17T01:18:00;22.00;;;9.87;;
3155;SDS011;1588;50.892;7.082;2023-08-17T01:23:08;16.43;;;10.77;;
3155;SDS011;1588;50.892;7.082;2023-08-17T01:28:11;17.07;;;9.33;;
3155;SDS011;1588;50.892;7.082;2023-08-17T01:33:14;15.77;;;9.00;;
3155;SDS011;1588;50.892;7.082;2023-08-17T01:38:27;18.10;;;10.10;;
3155;SDS011;1588;50.892;7.082;2023-08-17T01:43:31;22.80;;;9.67;;
3155;SDS011;1588;50.892;7.082;2023-08-17T01:48:34;13.07;;;9.57;;
3155;SDS011;1588;50.892;7.082;2023-08-17T01:53:38;31.67;;;9.40;;
3155;SDS011;1588;50.892;7.082;2023-08-17T01:58:40;17.87;;;9.27;;
3155;SDS011;1588;50.892;7.082;2023-08-17T02:03:43;19.33;;;10.00;;
3155;SDS011;1588;50.892;7.082;2023-08-17T02:08:46;22.93;;;10.53;;
3155;SDS011;1588;50.892;7.082;2023-08-17T02:13:49;17.13;;;10.20;;
3155;SDS011;1588;50.892;7.082;2023-08-17T02:18:51;24.13;;;8.83;;
3155;SDS011;1588;50.892;7.082;2023-08-17T02:23:55;16.43;;;9.83;;
3155;SDS011;1588;50.892;7.082;2023-08-17T02:28:57;14.63;;;9.00;;
3155;SDS011;1588;50.892;7.082;2023-08-17T02:33:59;11.37;;;8.43;;
3155;SDS011;1588;50.892;7.082;2023-08-17T02:39:07;20.53;;;9.17;;
3155;SDS011;1588;50.892;7.082;2023-08-17T02:44:09;16.33;;;8.87;;
3155;SDS011;1588;50.892;7.082;2023-08-17T02:49:11;15.37;;;8.50;;
3155;SDS011;1588;50.892;7.082;2023-08-17T02:54:15;15.07;;;9.47;;
3155;SDS011;1588;50.892;7.082;2023-08-17T02:59:17;13.00;;;8.57;;
3155;SDS011;1588;50.892;7.082;2023-08-17T03:04:19;17.97;;;8.50;;
3155;SDS011;1588;50.892;7.082;2023-08-17T03:09:23;23.53;;;8.33;;
3155;SDS011;1588;50.892;7.082;2023-08-17T03:14:25;36.93;;;9.13;;
3155;SDS011;1588;50.892;7.082;2023-08-17T03:19:28;14.40;;;8.30;;
3155;SDS011;1588;50.892;7.082;2023-08-17T03:24:32;11.50;;;8.10;;
3155;SDS011;1588;50.892;7.082;2023-08-17T03:29:34;10.97;;;7.33;;
3155;SDS011;1588;50.892;7.082;2023-08-17T03:34:36;10.87;;;9.17;;
3155;SDS011;1588;50.892;7.082;2023-08-17T03:39:40;17.50;;;9.43;;
3155;SDS011;1588;50.892;7.082;2023-08-17T03:44:42;14.37;;;9.37;;
3155;SDS011;1588;50.892;7.082;2023-08-17T03:49:44;18.47;;;8.40;;
3155;SDS011;1588;50.892;7.082;2023-08-17T03:54:48;15.50;;;10.30;;
3155;SDS011;1588;50.892;7.082;2023-08-17T03:59:50;16.00;;;10.27;;
3155;SDS011;1588;50.892;7.082;2023-08-17T04:04:52;18.30;;;9.30;;
3155;SDS011;1588;50.892;7.082;2023-08-17T04:09:56;21.33;;;9.47;;
3155;SDS011;1588;50.892;7.082;2023-08-17T04:14:58;16.33;;;8.93;;
3155;SDS011;1588;50.892;7.082;2023-08-17T04:20:01;28.33;;;9.90;;
3155;SDS011;1588;50.892;7.082;2023-08-17T04:25:05;17.00;;;10.27;;
3155;SDS011;1588;50.892;7.082;2023-08-17T04:30:08;21.13;;;9.83;;
3155;SDS011;1588;50.892;7.082;2023-08-17T04:35:11;16.77;;;9.77;;
3155;SDS011;1588;50.892;7.082;2023-08-17T04:40:15;14.60;;;9.97;;
3155;SDS011;1588;50.892;7.082;2023-08-17T04:45:17;13.10;;;9.70;;
3155;SDS011;1588;50.892;7.082;2023-08-17T04:50:22;22.13;;;9.60;;
3155;SDS011;1588;50.892;7.082;2023-08-17T04:55:26;22.70;;;9.73;;
3155;SDS011;1588;50.892;7.082;2023-08-17T05:00:28;15.80;;;10.07;;
3155;SDS011;1588;50.892;7.082;2023-08-17T05:05:31;15.63;;;9.20;;
3155;SDS011;1588;50.892;7.082;2023-08-17T05:10:35;28.70;;;10.27;;
3155;SDS011;1588;50.892;7.082;2023-08-17T05:15:38;14.57;;;9.67;;
3155;SDS011;1588;50.892;7.082;2023-08-17T05:20:40;16.50;;;9.63;;
3155;SDS011;1588;50.892;7.082;2023-08-17T05:25:46;16.20;;;10.20;;
3155;SDS011;1588;50.892;7.082;2023-08-17T05:30:53;16.70;;;10.13;;
3155;SDS011;1588;50.892;7.082;2023-08-17T05:35:55;18.93;;;11.33;;
3155;SDS011;1588;50.892;7.082;2023-08-17T05:40:59;17.53;;;10.90;;
3155;SDS011;1588;50.892;7.082;2023-08-17T05:46:02;17.80;;;10.23;;
3155;SDS011;1588;50.892;7.082;2023-08-17T05:51:05;17.63;;;10.60;;
3155;SDS011;1588;50.892;7.082;2023-08-17T05:56:09;21.83;;;11.60;;
3155;SDS011;1588;50.892;7.082;2023-08-17T06:01:11;15.90;;;10.50;;
3155;SDS011;1588;50.892;7.082;2023-08-17T06:06:14;21.13;;;11.23;;
3155;SDS011;1588;50.892;7.082;2023-08-17T06:11:17;23.23;;;10.90;;
3155;SDS011;1588;50.892;7.082;2023-08-17T06:16:20;20.83;;;12.20;;
3155;SDS011;1588;50.892;7.082;2023-08-17T06:21:22;23.23;;;12.33;;
3155;SDS011;1588;50.892;7.082;2023-08-17T06:26:26;19.67;;;11.30;;
3155;SDS011;1588;50.892;7.082;2023-08-17T06:31:28;24.37;;;13.20;;
3155;SDS011;1588;50.892;7.082;2023-08-17T06:36:31;19.33;;;11.20;;
3155;SDS011;1588;50.892;7.082;2023-08-17T06:41:35;20.83;;;12.00;;
3155;SDS011;1588;50.892;7.082;2023-08-17T06:46:38;19.23;;;11.70;;
3155;SDS011;1588;50.892;7.082;2023-08-17T06:52:00;23.87;;;12.50;;
3155;SDS011;1588;50.892;7.082;2023-08-17T06:57:04;20.50;;;12.23;;
3155;SDS011;1588;50.892;7.082;2023-08-17T07:02:07;16.27;;;11.23;;
3155;SDS011;1588;50.892;7.082;2023-08-17T07:07:09;19.10;;;10.03;;
3155;SDS011;1588;50.892;7.082;2023-08-17T07:12:12;24.27;;;11.63;;
3155;SDS011;1588;50.892;7.082;2023-08-17T07:17:14;20.30;;;10.67;;
3155;SDS011;1588;50.892;7.082;2023-08-17T07:22:17;19.10;;;10.80;;
3155;SDS011;1588;50.892;7.082;2023-08-17T07:27:20;19.20;;;10.70;;
3155;SDS011;1588;50.892;7.082;2023-08-17T07:32:27;18.10;;;9.90;;
3155;SDS011;1588;50.892;7.082;2023-08-17T07:37:33;20.57;;;10.97;;
3155;SDS011;1588;50.892;7.082;2023-08-17T07:42:37;16.43;;;10.30;;
3155;SDS011;1588;50.892;7.082;2023-08-17T07:47:39;15.10;;;9.80;;
3155;SDS011;1588;50.892;7.082;2023-08-17T07:52:41;15.83;;;10.47;;
3155;SDS011;1588;50.892;7.082;2023-08-17T07:57:45;23.40;;;10.50;;
3155;SDS011;1588;50.892;7.082;2023-08-17T08:02:48;18.17;;;10.10;;
3155;SDS011;1588;50.892;7.082;2023-08-17T08:08:13;12.40;;;8.20;;
3155;SDS011;1588;50.892;7.082;2023-08-17T08:13:19;16.70;;;8.97;;
3155;SDS011;1588;50.892;7.082;2023-08-17T08:18:21;19.33;;;9.00;;
3155;SDS011;1588;50.892;7.082;2023-08-17T08:23:23;17.10;;;9.43;;
3155;SDS011;1588;50.892;7.082;2023-08-17T08:28:34;19.20;;;10.33;;
3155;SDS011;1588;50.892;7.082;2023-08-17T08:33:37;17.23;;;10.20;;
3155;SDS011;1588;50.892;7.082;2023-08-17T08:38:39;16.80;;;9.83;;
3155;SDS011;1588;50.892;7.082;2023-08-17T08:43:43;18.90;;;10.87;;
3155;SDS011;1588;50.892;7.082;2023-08-17T08:49:06;19.50;;;10.63;;
3155;SDS011;1588;50.892;7.082;2023-08-17T08:54:16;38.07;;;11.53;;
3155;SDS011;1588;50.892;7.082;2023-08-17T08:59:26;18.27;;;10.70;;
3155;SDS011;1588;50.892;7.082;2023-08-17T09:04:30;19.20;;;10.80;;
3155;SDS011;1588;50.892;7.082;2023-08-17T09:09:32;20.93;;;11.20;;
3155;SDS011;1588;50.892;7.082;2023-08-17T09:14:40;17.23;;;9.40;;
3155;SDS011;1588;50.892;7.082;2023-08-17T09:19:45;18.90;;;10.03;;
3155;SDS011;1588;50.892;7.082;2023-08-17T09:24:51;15.70;;;7.90;;
3155;SDS011;1588;50.892;7.082;2023-08-17T09:30:02;18.17;;;7.77;;
3155;SDS011;1588;50.892;7.082;2023-08-17T09:35:06;16.13;;;8.97;;
3155;SDS011;1588;50.892;7.082;2023-08-17T09:40:10;11.80;;;6.77;;
3155;SDS011;1588;50.892;7.082;2023-08-17T09:45:18;14.27;;;7.10;;
3155;SDS011;1588;50.892;7.082;2023-08-17T09:50:21;17.30;;;7.10;;
3155;SDS011;1588;50.892;7.082;2023-08-17T09:55:25;11.63;;;6.70;;
3155;SDS011;1588;50.892;7.082;2023-08-17T10:00:29;12.13;;;7.70;;
3155;SDS011;1588;50.892;7.082;2023-08-17T10:05:37;14.53;;;8.33;;
3155;SDS011;1588;50.892;7.082;2023-08-17T10:10:43;14.90;;;7.40;;
3155;SDS011;1588;50.892;7.082;2023-08-17T10:15:50;15.57;;;8.67;;
3155;SDS011;1588;50.892;7.082;2023-08-17T10:21:06;12.67;;;7.80;;
3155;SDS011;1588;50.892;7.082;2023-08-17T10:26:11;13.60;;;9.13;;
3155;SDS011;1588;50.892;7.082;2023-08-17T10:31:15;9.60;;;7.10;;
3155;SDS011;1588;50.892;7.082;2023-08-17T10:36:17;17.60;;;7.83;;
3155;SDS011;1588;50.892;7.082;2023-08-17T10:41:21;12.70;;;8.60;;
3155;SDS011;1588;50.892;7.082;2023-08-17T10:46:34;11.60;;;7.23;;
3155;SDS011;1588;50.892;7.082;2023-08-17T10:51:59;10.90;;;8.07;;
3155;SDS011;1588;50.892;7.082;2023-08-17T11:02:43;14.03;;;7.63;;
3155;SDS011;1588;50.892;7.082;2023-08-17T11:08:05;16.30;;;7.63;;
3155;SDS011;1588;50.892;7.082;2023-08-17T11:13:09;12.13;;;7.57;;
3155;SDS011;1588;50.892;7.082;2023-08-17T11:18:13;10.50;;;7.50;;
3155;SDS011;1588;50.892;7.082;2023-08-17T11:23:15;13.60;;;6.70;;
3155;SDS011;1588;50.892;7.082;2023-08-17T11:28:18;10.10;;;7.03;;
3155;SDS011;1588;50.892;7.082;2023-08-17T11:33:23;14.23;;;7.00;;
3155;SDS011;1588;50.892;7.082;2023-08-17T11:38:29;18.83;;;6.23;;
3155;SDS011;1588;50.892;7.082;2023-08-17T11:43:32;10.90;;;6.20;;
3155;SDS011;1588;50.892;7.082;2023-08-17T11:48:36;13.93;;;7.10;;
3155;SDS011;1588;50.892;7.082;2023-08-17T11:53:42;11.53;;;6.77;;
3155;SDS011;1588;50.892;7.082;2023-08-17T11:58:45;14.20;;;6.53;;
3155;SDS011;1588;50.892;7.082;2023-08-17T12:03:51;7.33;;;5.87;;
3155;SDS011;1588;50.892;7.082;2023-08-17T12:08:57;11.27;;;6.37;;
3155;SDS011;1588;50.892;7.082;2023-08-17T12:14:01;8.10;;;6.03;;
3155;SDS011;1588;50.892;7.082;2023-08-17T12:19:12;8.93;;;6.60;;
3155;SDS011;1588;50.892;7.082;2023-08-17T12:24:38;16.87;;;6.67;;
3155;SDS011;1588;50.892;7.082;2023-08-17T12:29:46;9.30;;;6.20;;
3155;SDS011;1588;50.892;7.082;2023-08-17T12:34:51;8.80;;;6.23;;
3155;SDS011;1588;50.892;7.082;2023-08-17T12:39:53;9.60;;;5.50;;
3155;SDS011;1588;50.892;7.082;2023-08-17T12:44:55;11.80;;;6.37;;
3155;SDS011;1588;50.892;7.082;2023-08-17T12:49:59;11.97;;;6.47;;
3155;SDS011;1588;50.892;7.082;2023-08-17T12:55:04;11.20;;;6.60;;
3155;SDS011;1588;50.892;7.082;2023-08-17T13:00:07;10.47;;;5.90;;
3155;SDS011;1588;50.892;7.082;2023-08-17T13:05:11;8.07;;;6.33;;
3155;SDS011;1588;50.892;7.082;2023-08-17T13:10:14;11.00;;;6.63;;
3155;SDS011;1588;50.892;7.082;2023-08-17T13:15:17;7.27;;;5.50;;
3155;SDS011;1588;50.892;7.082;2023-08-17T13:20:35;18.63;;;5.70;;
3155;SDS011;1588;50.892;7.082;2023-08-17T13:25:39;15.00;;;6.53;;
3155;SDS011;1588;50.892;7.082;2023-08-17T13:30:43;14.80;;;7.43;;
3155;SDS011;1588;50.892;7.082;2023-08-17T13:35:47;10.30;;;7.00;;
3155;SDS011;1588;50.892;7.082;2023-08-17T13:40:49;9.10;;;6.70;;
3155;SDS011;1588;50.892;7.082;2023-08-17T13:45:52;11.60;;;7.70;;
3155;SDS011;1588;50.892;7.082;2023-08-17T13:50:55;13.63;;;8.77;;
3155;SDS011;1588;50.892;7.082;2023-08-17T13:55:58;15.47;;;9.13;;
3155;SDS011;1588;50.892;7.082;2023-08-17T14:01:00;19.10;;;10.00;;
3155;SDS011;1588;50.892;7.082;2023-08-17T14:06:04;13.07;;;8.00;;
3155;SDS011;1588;50.892;7.082;2023-08-17T14:11:07;12.07;;;8.90;;
3155;SDS011;1588;50.892;7.082;2023-08-17T14:16:09;14.47;;;8.67;;
3155;SDS011;1588;50.892;7.082;2023-08-17T14:21:13;16.23;;;7.97;;
3155;SDS011;1588;50.892;7.082;2023-08-17T14:26:15;11.63;;;7.30;;
3155;SDS011;1588;50.892;7.082;2023-08-17T14:31:19;15.80;;;8.33;;
3155;SDS011;1588;50.892;7.082;2023-08-17T14:36:22;11.60;;;7.80;;
3155;SDS011;1588;50.892;7.082;2023-08-17T14:41:25;10.23;;;7.63;;
3155;SDS011;1588;50.892;7.082;2023-08-17T14:46:31;11.07;;;7.63;;
3155;SDS011;1588;50.892;7.082;2023-08-17T14:51:39;9.80;;;7.87;;
3155;SDS011;1588;50.892;7.082;2023-08-17T14:56:43;8.17;;;6.70;;
3155;SDS011;1588;50.892;7.082;2023-08-17T15:01:52;10.60;;;7.20;;
3155;SDS011;1588;50.892;7.082;2023-08-17T15:06:58;12.23;;;7.60;;
3155;SDS011;1588;50.892;7.082;2023-08-17T15:12:00;11.20;;;6.20;;
3155;SDS011;1588;50.892;7.082;2023-08-17T15:17:03;10.97;;;6.80;;
3155;SDS011;1588;50.892;7.082;2023-08-17T15:22:07;7.00;;;6.30;;
3155;SDS011;1588;50.892;7.082;2023-08-17T15:27:09;8.00;;;5.87;;
3155;SDS011;1588;50.892;7.082;2023-08-17T15:32:12;6.93;;;5.70;;
3155;SDS011;1588;50.892;7.082;2023-08-17T15:37:16;7.77;;;5.80;;
3155;SDS011;1588;50.892;7.082;2023-08-17T15:42:18;8.50;;;5.97;;
3155;SDS011;1588;50.892;7.082;2023-08-17T15:47:20;7.57;;;6.17;;
3155;SDS011;1588;50.892;7.082;2023-08-17T15:52:24;12.77;;;6.87;;
3155;SDS011;1588;50.892;7.082;2023-08-17T15:57:26;6.10;;;5.50;;
3155;SDS011;1588;50.892;7.082;2023-08-17T16:02:29;7.27;;;5.30;;
3155;SDS011;1588;50.892;7.082;2023-08-17T16:07:33;12.10;;;6.50;;
3155;SDS011;1588;50.892;7.082;2023-08-17T16:12:35;10.87;;;5.90;;
3155;SDS011;1588;50.892;7.082;2023-08-17T16:17:38;7.37;;;5.57;;
3155;SDS011;1588;50.892;7.082;2023-08-17T16:22:41;9.97;;;6.40;;
3155;SDS011;1588;50.892;7.082;2023-08-17T16:27:44;6.67;;;5.90;;
3155;SDS011;1588;50.892;7.082;2023-08-17T16:32:46;7.70;;;5.90;;
3155;SDS011;1588;50.892;7.082;2023-08-17T16:37:50;8.27;;;5.33;;
3155;SDS011;1588;50.892;7.082;2023-08-17T16:42:52;10.90;;;5.77;;
3155;SDS011;1588;50.892;7.082;2023-08-17T16:47:55;6.40;;;5.30;;
3155;SDS011;1588;50.892;7.082;2023-08-17T16:52:58;9.23;;;5.67;;
3155;SDS011;1588;50.892;7.082;2023-08-17T16:58:01;6.80;;;5.37;;
3155;SDS011;1588;50.892;7.082;2023-08-17T17:03:04;5.50;;;4.87;;
3155;SDS011;1588;50.892;7.082;2023-08-17T17:08:08;6.30;;;4.97;;
3155;SDS011;1588;50.892;7.082;2023-08-17T17:13:10;11.83;;;5.80;;
3155;SDS011;1588;50.892;7.082;2023-08-17T17:18:13;10.33;;;6.00;;
3155;SDS011;1588;50.892;7.082;2023-08-17T17:23:16;7.30;;;4.80;;
3155;SDS011;1588;50.892;7.082;2023-08-17T17:28:19;8.73;;;5.30;;
3155;SDS011;1588;50.892;7.082;2023-08-17T17:33:21;12.77;;;5.50;;
3155;SDS011;1588;50.892;7.082;2023-08-17T17:38:25;7.27;;;5.77;;
3155;SDS011;1588;50.892;7.082;2023-08-17T17:43:27;7.47;;;5.80;;
3155;SDS011;1588;50.892;7.082;2023-08-17T17:48:45;7.63;;;5.80;;
3155;SDS011;1588;50.892;7.082;2023-08-17T17:53:49;9.13;;;6.27;;
3155;SDS011;1588;50.892;7.082;2023-08-17T17:58:52;9.83;;;6.37;;
3155;SDS011;1588;50.892;7.082;2023-08-17T18:03:55;7.13;;;5.87;;
3155;SDS011;1588;50.892;7.082;2023-08-17T18:09:00;7.07;;;5.13;;
3155;SDS011;1588;50.892;7.082;2023-08-17T18:14:05;6.70;;;5.20;;
3155;SDS011;1588;50.892;7.082;2023-08-17T18:19:08;5.67;;;4.87;;
3155;SDS011;1588;50.892;7.082;2023-08-17T18:24:12;7.23;;;5.90;;
3155;SDS011;1588;50.892;7.082;2023-08-17T18:29:14;10.93;;;5.73;;
3155;SDS011;1588;50.892;7.082;2023-08-17T18:34:17;8.50;;;5.83;;
3155;SDS011;1588;50.892;7.082;2023-08-17T18:39:21;11.20;;;6.30;;
3155;SDS011;1588;50.892;7.082;2023-08-17T18:44:24;6.97;;;5.73;;
3155;SDS011;1588;50.892;7.082;2023-08-17T18:49:26;15.00;;;6.90;;
3155;SDS011;1588;50.892;7.082;2023-08-17T18:54:32;15.83;;;7.03;;
3155;SDS011;1588;50.892;7.082;2023-08-17T18:59:35;8.23;;;6.03;;
3155;SDS011;1588;50.892;7.082;2023-08-17T19:04:37;15.03;;;6.20;;
3155;SDS011;1588;50.892;7.082;2023-08-17T19:09:42;8.60;;;5.80;;
3155;SDS011;1588;50.892;7.082;2023-08-17T19:14:46;8.50;;;5.80;;
3155;SDS011;1588;50.892;7.082;2023-08-17T19:19:49;7.63;;;5.97;;
3155;SDS011;1588;50.892;7.082;2023-08-17T19:24:52;11.40;;;7.50;;
3155;SDS011;1588;50.892;7.082;2023-08-17T19:29:55;12.37;;;7.23;;
3155;SDS011;1588;50.892;7.082;2023-08-17T19:34:57;9.83;;;6.40;;
3155;SDS011;1588;50.892;7.082;2023-08-17T19:40:01;10.40;;;6.73;;
3155;SDS011;1588;50.892;7.082;2023-08-17T19:45:04;12.83;;;6.73;;
3155;SDS011;1588;50.892;7.082;2023-08-17T19:50:09;10.90;;;7.00;;
3155;SDS011;1588;50.892;7.082;2023-08-17T19:55:13;9.40;;;7.10;;
3155;SDS011;1588;50.892;7.082;2023-08-17T20:00:15;10.80;;;6.40;;
3155;SDS011;1588;50.892;7.082;2023-08-17T20:05:18;9.23;;;6.60;;
3155;SDS011;1588;50.892;7.082;2023-08-17T20:10:22;18.47;;;6.87;;
3155;SDS011;1588;50.892;7.082;2023-08-17T20:15:24;9.93;;;6.40;;
3155;SDS011;1588;50.892;7.082;2023-08-17T20:20:27;10.40;;;7.53;;
3155;SDS011;1588;50.892;7.082;2023-08-17T20:25:32;11.87;;;7.50;;
3155;SDS011;1588;50.892;7.082;2023-08-17T20:30:34;10.60;;;7.27;;
3155;SDS011;1588;50.892;7.082;2023-08-17T20:35:37;11.17;;;7.67;;
3155;SDS011;1588;50.892;7.082;2023-08-17T20:40:42;10.30;;;6.83;;
3155;SDS011;1588;50.892;7.082;2023-08-17T20:45:44;11.47;;;7.03;;
3155;SDS011;1588;50.892;7.082;2023-08-17T20:50:47;11.10;;;7.77;;
3155;SDS011;1588;50.892;7.082;2023-08-17T20:55:50;8.63;;;6.77;;
3155;SDS011;1588;50.892;7.082;2023-08-17T21:00:52;12.87;;;7.60;;
3155;SDS011;1588;50.892;7.082;2023-08-17T21:06:00;10.33;;;7.33;;
3155;SDS011;1588;50.892;7.082;2023-08-17T21:11:09;13.63;;;8.17;;
3155;SDS011;1588;50.892;7.082;2023-08-17T21:16:12;11.77;;;6.80;;
3155;SDS011;1588;50.892;7.082;2023-08-17T21:21:14;14.20;;;8.00;;
3155;SDS011;1588;50.892;7.082;2023-08-17T21:26:17;13.63;;;7.57;;
3155;SDS011;1588;50.892;7.082;2023-08-17T21:31:20;13.67;;;7.60;;
3155;SDS011;1588;50.892;7.082;2023-08-17T21:36:24;14.33;;;8.00;;
3155;SDS011;1588;50.892;7.082;2023-08-17T21:41:28;10.43;;;7.30;;
3155;SDS011;1588;50.892;7.082;2023-08-17T21:46:31;11.57;;;8.23;;
3155;SDS011;1588;50.892;7.082;2023-08-17T21:51:33;9.37;;;7.57;;
3155;SDS011;1588;50.892;7.082;2023-08-17T21:56:37;16.10;;;7.47;;
3155;SDS011;1588;50.892;7.082;2023-08-17T22:01:39;12.20;;;7.20;;
3155;SDS011;1588;50.892;7.082;2023-08-17T22:06:42;14.80;;;8.20;;
3155;SDS011;1588;50.892;7.082;2023-08-17T22:11:45;13.17;;;7.60;;
3155;SDS011;1588;50.892;7.082;2023-08-17T22:16:47;12.27;;;7.60;;
3155;SDS011;1588;50.892;7.082;2023-08-17T22:21:50;14.43;;;8.40;;
3155;SDS011;1588;50.892;7.082;2023-08-17T22:26:53;11.73;;;8.23;;
3155;SDS011;1588;50.892;7.082;2023-08-17T22:31:56;12.23;;;8.00;;
3155;SDS011;1588;50.892;7.082;2023-08-17T22:36:58;14.80;;;8.43;;
3155;SDS011;1588;50.892;7.082;2023-08-17T22:42:01;16.40;;;8.80;;
3155;SDS011;1588;50.892;7.082;2023-08-17T22:47:04;13.10;;;8.13;;
3155;SDS011;1588;50.892;7.082;2023-08-17T22:52:07;14.33;;;7.80;;
3155;SDS011;1588;50.892;7.082;2023-08-17T22:57:11;13.57;;;8.40;;
3155;SDS011;1588;50.892;7.082;2023-08-17T23:02:13;13.63;;;7.67;;
3155;SDS011;1588;50.892;7.082;2023-08-17T23:07:16;11.67;;;8.23;;
3155;SDS011;1588;50.892;7.082;2023-08-17T23:12:19;12.07;;;7.67;;
3155;SDS011;1588;50.892;7.082;2023-08-17T23:17:21;17.53;;;8.10;;
3155;SDS011;1588;50.892;7.082;2023-08-17T23:22:24;15.90;;;8.50;;
3155;SDS011;1588;50.892;7.082;2023-08-17T23:27:28;13.67;;;9.07;;
3155;SDS011;1588;50.892;7.082;2023-08-17T23:32:30;12.57;;;8.10;;
3155;SDS011;1588;50.892;7.082;2023-08-17T23:37:32;12.77;;;7.87;;
3155;SDS011;1588;50.892;7.082;2023-08-17T23:42:36;14.77;;;8.20;;
3155;SDS011;1588;50.892;7.082;2023-08-17T23:47:38;15.13;;;8.60;;
3155;SDS011;1588;50.892;7.082;2023-08-17T23:52:40;11.70;;;8.20;;
3155;SDS011;1588;50.892;7.082;2023-08-17T23:57:44;16.83;;;8.23;;
